MSC Poh Lin — H8FC — position and weather

sailwx.info

Track history (hours):
 
Tides and Currents Weather Stations Pressure Air Temp Water Temp Dewpoint Dewpoint Depression Visibility Wind Speed Wind Dir Waves Ship Positions

MSC Poh Lin

Last reported at 2015-Apr-14 19:05 UTC. Time now 2015-Apr-19 19:06 UTC.
Position N 32°09' W 117°39'.

Length 294 m; draft 12.8 m.

Type: Ship (hazmat cat A). MMSI: 357405000.

Date/timePositionNaut miles runAvg speedWind from/ knotsBaromVisibWave heightAir tempDewpointWater temp
2015-Apr-14 19:05N 32°09' W 117°39'815.3
2015-Apr-14 18:33N 32°17' W 117°42'1615.1
2015-Apr-14 17:29N 32°32' W 117°49'1314.2
2015-Apr-14 16:33N 32°45' W 117°50'1514.8
2015-Apr-14 15:33N 32°59' W 117°57'1110.8
2015-Apr-14 14:33N 33°09' W 118°01'1210.0
2015-Apr-14 13:20N 33°20' W 118°07'910.2
2015-Apr-14 12:25N 33°29' W 118°11'1310.0
2015-Apr-14 11:08N 33°42' W 118°11'4 6.2
2015-Apr-14 10:34N 33°45' W 118°13'1 1.2
2015-Apr-14 09:31N 33°46' W 118°14'0 0.0
2015-Apr-14 06:31N 33°46' W 118°14'0 0.1
2015-Apr-14 05:31N 33°46' W 118°14'0 0.0
2015-Apr-14 04:25N 33°46' W 118°14'0 0.0
2015-Apr-14 03:31N 33°46' W 118°14'0 0.0
2015-Apr-14 02:31N 33°46' W 118°14'0 0.0
2015-Apr-14 01:25N 33°46' W 118°14'0 0.0
2015-Apr-14 00:28N 33°46' W 118°14'0 0.0
2015-Apr-13 23:31N 33°46' W 118°14'0 0.0
2015-Apr-13 22:31N 33°46' W 118°14'0 0.0
2015-Apr-13 21:31N 33°46' W 118°14'0 0.0
2015-Apr-13 20:31N 33°46' W 118°14'0 0.0
2015-Apr-13 19:31N 33°46' W 118°14'0 0.0
2015-Apr-13 18:31N 33°46' W 118°14'0 0.0
2015-Apr-13 17:31N 33°46' W 118°14'0 0.0
2015-Apr-13 16:28N 33°46' W 118°14'0 0.0
2015-Apr-13 15:28N 33°46' W 118°14'0 0.1
2015-Apr-13 14:34N 33°46' W 118°14'0 0.1
2015-Apr-13 13:34N 33°46' W 118°14'4 3.5
2015-Apr-13 12:33N 33°43' W 118°11'5 5.2
2015-Apr-13 11:34N 33°38' W 118°10'7 7.4
2015-Apr-13 10:34N 33°36' W 118°19'7 7.1
2015-Apr-13 09:34N 33°39' W 118°27'7 6.8
2015-Apr-13 08:33N 33°42' W 118°34'7 6.8
2015-Apr-13 07:33N 33°46' W 118°41'8 7.6
2015-Apr-13 06:31N 33°50' W 118°49'9 9.2
2015-Apr-13 05:33N 33°54' W 118°58'10 9.6
2015-Apr-13 04:33N 33°59' W 119°08'10 9.8
2015-Apr-13 03:34N 34°03' W 119°19'10 9.6
2015-Apr-13 02:33N 34°06' W 119°30'9 9.3
2015-Apr-13 01:33N 34°08' W 119°41'4911.3
2015-Apr-12 21:16N 34°21' W 120°38'1212.9
2015-Apr-12 20:22N 34°24' W 120°51'1012.5
2015-Apr-12 19:33N 34°32' W 120°59'1312.7
2015-Apr-12 18:33N 34°43' W 121°07'1312.7
2015-Apr-12 17:34N 34°53' W 121°16'15313.8
2015-Apr-12 06:27N 37°09' W 122°43'1414.3
2015-Apr-12 05:28N 37°23' W 122°44'1314.0
2015-Apr-12 04:33N 37°36' W 122°44'1211.6
2015-Apr-12 03:33N 37°46' W 122°37'1212.3
2015-Apr-12 02:33N 37°48' W 122°22'2 2.2
2015-Apr-12 01:33N 37°49' W 122°19'0 0.0
2015-Apr-12 00:30N 37°49' W 122°19'0 0.0
2015-Apr-11 23:30N 37°49' W 122°19'0 0.0
2015-Apr-11 22:33N 37°49' W 122°19'0 0.0
2015-Apr-11 21:33N 37°49' W 122°19'0 0.0
2015-Apr-11 20:33N 37°49' W 122°19'0 0.0
2015-Apr-11 19:33N 37°49' W 122°19'0 0.0
2015-Apr-11 18:27N 37°49' W 122°19'0 0.0
2015-Apr-11 17:27N 37°49' W 122°19'0 0.0
2015-Apr-11 16:33N 37°49' W 122°19'0 0.0
2015-Apr-11 15:30N 37°49' W 122°19'0 0.0
2015-Apr-11 14:30N 37°49' W 122°19'0 0.0
2015-Apr-11 13:33N 37°49' W 122°19'0 0.0
2015-Apr-11 12:33N 37°49' W 122°19'0 0.0
2015-Apr-11 11:33N 37°49' W 122°19'0 0.0
2015-Apr-11 10:33N 37°49' W 122°19'0 0.0
2015-Apr-11 09:33N 37°49' W 122°19'0 0.0
2015-Apr-11 08:33N 37°49' W 122°19'0 0.0
2015-Apr-11 07:33N 37°49' W 122°19'0 0.0
2015-Apr-11 06:33N 37°49' W 122°19'0 0.0
2015-Apr-11 05:33N 37°49' W 122°19'0 0.0
2015-Apr-11 04:33N 37°49' W 122°19'0 0.0
2015-Apr-11 03:33N 37°49' W 122°19'0 0.0
2015-Apr-11 02:33N 37°49' W 122°19'0 0.0
2015-Apr-11 01:33N 37°49' W 122°19'0 0.0
2015-Apr-11 00:33N 37°49' W 122°19'0 0.0
2015-Apr-10 23:33N 37°49' W 122°19'0 0.0
2015-Apr-10 22:33N 37°49' W 122°19'0 0.0
2015-Apr-10 21:33N 37°49' W 122°19'0 0.0
2015-Apr-10 20:33N 37°49' W 122°19'0 0.0
2015-Apr-10 19:33N 37°49' W 122°19'0 0.0
2015-Apr-10 18:33N 37°49' W 122°19'0 0.0
2015-Apr-10 17:33N 37°49' W 122°19'0 0.0
2015-Apr-10 16:33N 37°49' W 122°19'0 0.0
2015-Apr-10 15:33N 37°49' W 122°19'0 0.0
2015-Apr-10 14:34N 37°49' W 122°19'0 0.0
2015-Apr-10 13:34N 37°49' W 122°19'0 0.2
2015-Apr-10 12:34N 37°49' W 122°20'9 8.9
2015-Apr-10 11:33N 37°48' W 122°31'1211.6
2015-Apr-10 10:33N 37°45' W 122°45'6 5.9
2015-Apr-10 09:33N 37°48' W 122°52'5 4.9
2015-Apr-10 08:33N 37°51' W 122°57'5 5.1
2015-Apr-10 07:33N 37°53' W 123°02'5 5.2
2015-Apr-10 06:33N 37°56' W 123°08'5 5.3
2015-Apr-10 05:33N 37°60' W 123°13'5 5.0
2015-Apr-10 04:33N 38°03' W 123°17'5 5.2
2015-Apr-10 03:33N 38°07' W 123°22'5 4.5
2015-Apr-10 02:33N 38°02' W 123°24'0 0.5
2015-Apr-10 01:33N 38°02' W 123°24'1 1.3
2015-Apr-10 00:33N 38°03' W 123°25'1 1.2
2015-Apr-09 23:33N 38°04' W 123°26'1 1.0
2015-Apr-09 22:33N 38°05' W 123°27'1 1.0
2015-Apr-09 21:33N 38°05' W 123°28'1 1.1
2015-Apr-09 20:33N 38°06' W 123°28'1 0.8
2015-Apr-09 19:33N 38°07' W 123°29'4 4.0
2015-Apr-09 18:33N 38°08' W 123°24'1 0.9
2015-Apr-09 17:33N 38°09' W 123°25'1 0.8
2015-Apr-09 16:33N 38°09' W 123°25'1 0.7
2015-Apr-09 15:33N 38°10' W 123°26'1 0.8
2015-Apr-09 14:33N 38°10' W 123°25'5 4.9
2015-Apr-09 13:33N 38°15' W 123°27'7 6.7
2015-Apr-09 12:33N 38°21' W 123°32'6 6.4
2015-Apr-09 11:33N 38°26' W 123°36'6 6.3
2015-Apr-09 10:33N 38°32' W 123°40'6 6.3
2015-Apr-09 09:33N 38°37' W 123°44'6 6.0
2015-Apr-09 08:33N 38°43' W 123°48'6 5.9
2015-Apr-09 07:33N 38°48' W 123°51'400 7.7
2015-Apr-07 03:33N 45°25' W 125°01'9 9.1
2015-Apr-07 02:33N 45°34' W 125°03'11 8.9
2015-Apr-07 01:17N 45°45' W 125°04'7 9.1
2015-Apr-07 00:33N 45°52' W 125°05'11 9.0
2015-Apr-06 23:21N 46°02' W 125°06'7 9.3
2015-Apr-06 22:33N 46°10' W 125°07'9 8.8
2015-Apr-06 21:33N 46°18' W 125°08'9 8.7
2015-Apr-06 20:33N 46°27' W 125°10'9 8.6
2015-Apr-06 19:32N 46°36' W 125°11'10 8.6
2015-Apr-06 18:25N 46°45' W 125°11'8 8.8
2015-Apr-06 17:33N 46°53' W 125°12'7911.1
2015-Apr-06 10:28N 48°12' W 125°12'1213.0
2015-Apr-06 09:30N 48°24' W 125°08'1111.6
2015-Apr-06 08:33N 48°31' W 124°55'1413.8
2015-Apr-06 07:33N 48°28' W 124°35'1414.2
2015-Apr-06 06:33N 48°23' W 124°15'1514.5
2015-Apr-06 05:33N 48°17' W 123°55'1716.8
2015-Apr-06 04:33N 48°16' W 123°30'1414.4
2015-Apr-06 03:33N 48°25' W 123°12'1716.9
2015-Apr-06 02:34N 48°42' W 123°15'1413.8
2015-Apr-06 01:33N 48°52' W 123°02'10 9.1
2015-Apr-06 00:29N 49°01' W 123°09'0 0.0
2015-Apr-05 23:33N 49°01' W 123°09'0 0.0
2015-Apr-05 22:33N 49°01' W 123°09'0 0.0
2015-Apr-05 21:33N 49°01' W 123°09'0 0.0
2015-Apr-05 20:33N 49°01' W 123°09'0 0.0
2015-Apr-05 19:33N 49°01' W 123°09'0 0.0
2015-Apr-05 18:33N 49°01' W 123°09'0 0.0
2015-Apr-05 17:33N 49°01' W 123°09'0 0.0
2015-Apr-05 16:33N 49°01' W 123°09'0 0.0
2015-Apr-05 15:33N 49°01' W 123°09'0 0.0
2015-Apr-05 14:33N 49°01' W 123°09'0 0.0
2015-Apr-05 13:33N 49°01' W 123°09'0 0.0
2015-Apr-05 12:33N 49°01' W 123°09'0 0.0
2015-Apr-05 11:33N 49°01' W 123°09'0 0.0
2015-Apr-05 10:33N 49°01' W 123°09'0 0.0
2015-Apr-05 09:33N 49°01' W 123°09'0 0.0
2015-Apr-05 08:33N 49°01' W 123°09'0 0.0
2015-Apr-05 07:33N 49°01' W 123°09'0 0.0
2015-Apr-05 06:33N 49°01' W 123°09'0 0.0
2015-Apr-05 05:33N 49°01' W 123°09'0 0.0
2015-Apr-05 04:33N 49°01' W 123°09'0 0.0
2015-Apr-05 03:33N 49°01' W 123°09'0 0.0
2015-Apr-05 02:33N 49°01' W 123°09'0 0.0
2015-Apr-05 01:33N 49°01' W 123°09'0 0.0
2015-Apr-05 00:33N 49°01' W 123°09'0 0.0
2015-Apr-04 23:33N 49°01' W 123°09'0 0.0
2015-Apr-04 22:33N 49°01' W 123°09'0 0.0
2015-Apr-04 21:33N 49°01' W 123°09'0 0.0
2015-Apr-04 20:33N 49°01' W 123°09'3 2.8
2015-Apr-04 19:33N 48°58' W 123°08'  
Track history (hours):
 
Tides and Currents Weather Stations Pressure Air Temp Water Temp Dewpoint Dewpoint Depression Visibility Wind Speed Wind Dir Waves Ship Positions

MSC Poh Lin

Last reported at 2015-Apr-14 19:05 UTC. Time now 2015-Apr-19 19:06 UTC.
Position N 32°09' W 117°39'.

Length 294 m; draft 12.8 m.

Type: Ship (hazmat cat A). MMSI: 357405000.

Date/timePositionNaut miles runAvg speedWind from/ knotsBaromVisibWave heightAir tempDewpointWater temp
2015-Apr-14 19:05N 32°09' W 117°39'815.3
2015-Apr-14 18:33N 32°17' W 117°42'1615.1
2015-Apr-14 17:29N 32°32' W 117°49'1314.2
2015-Apr-14 16:33N 32°45' W 117°50'1514.8
2015-Apr-14 15:33N 32°59' W 117°57'1110.8
2015-Apr-14 14:33N 33°09' W 118°01'1210.0
2015-Apr-14 13:20N 33°20' W 118°07'910.2
2015-Apr-14 12:25N 33°29' W 118°11'1310.0
2015-Apr-14 11:08N 33°42' W 118°11'4 6.2
2015-Apr-14 10:34N 33°45' W 118°13'1 1.2
2015-Apr-14 09:31N 33°46' W 118°14'0 0.0
2015-Apr-14 06:31N 33°46' W 118°14'0 0.1
2015-Apr-14 05:31N 33°46' W 118°14'0 0.0
2015-Apr-14 04:25N 33°46' W 118°14'0 0.0
2015-Apr-14 03:31N 33°46' W 118°14'0 0.0
2015-Apr-14 02:31N 33°46' W 118°14'0 0.0
2015-Apr-14 01:25N 33°46' W 118°14'0 0.0
2015-Apr-14 00:28N 33°46' W 118°14'0 0.0
2015-Apr-13 23:31N 33°46' W 118°14'0 0.0
2015-Apr-13 22:31N 33°46' W 118°14'0 0.0
2015-Apr-13 21:31N 33°46' W 118°14'0 0.0
2015-Apr-13 20:31N 33°46' W 118°14'0 0.0
2015-Apr-13 19:31N 33°46' W 118°14'0 0.0
2015-Apr-13 18:31N 33°46' W 118°14'0 0.0
2015-Apr-13 17:31N 33°46' W 118°14'0 0.0
2015-Apr-13 16:28N 33°46' W 118°14'0 0.0
2015-Apr-13 15:28N 33°46' W 118°14'0 0.1
2015-Apr-13 14:34N 33°46' W 118°14'0 0.1
2015-Apr-13 13:34N 33°46' W 118°14'4 3.5
2015-Apr-13 12:33N 33°43' W 118°11'5 5.2
2015-Apr-13 11:34N 33°38' W 118°10'7 7.4
2015-Apr-13 10:34N 33°36' W 118°19'7 7.1
2015-Apr-13 09:34N 33°39' W 118°27'7 6.8
2015-Apr-13 08:33N 33°42' W 118°34'7 6.8
2015-Apr-13 07:33N 33°46' W 118°41'8 7.6
2015-Apr-13 06:31N 33°50' W 118°49'9 9.2
2015-Apr-13 05:33N 33°54' W 118°58'10 9.6
2015-Apr-13 04:33N 33°59' W 119°08'10 9.8
2015-Apr-13 03:34N 34°03' W 119°19'10 9.6
2015-Apr-13 02:33N 34°06' W 119°30'9 9.3
2015-Apr-13 01:33N 34°08' W 119°41'4911.3
2015-Apr-12 21:16N 34°21' W 120°38'1212.9
2015-Apr-12 20:22N 34°24' W 120°51'1012.5
2015-Apr-12 19:33N 34°32' W 120°59'1312.7
2015-Apr-12 18:33N 34°43' W 121°07'1312.7
2015-Apr-12 17:34N 34°53' W 121°16'15313.8
2015-Apr-12 06:27N 37°09' W 122°43'1414.3
2015-Apr-12 05:28N 37°23' W 122°44'1314.0
2015-Apr-12 04:33N 37°36' W 122°44'1211.6
2015-Apr-12 03:33N 37°46' W 122°37'1212.3
2015-Apr-12 02:33N 37°48' W 122°22'2 2.2
2015-Apr-12 01:33N 37°49' W 122°19'0 0.0
2015-Apr-12 00:30N 37°49' W 122°19'0 0.0
2015-Apr-11 23:30N 37°49' W 122°19'0 0.0
2015-Apr-11 22:33N 37°49' W 122°19'0 0.0
2015-Apr-11 21:33N 37°49' W 122°19'0 0.0
2015-Apr-11 20:33N 37°49' W 122°19'0 0.0
2015-Apr-11 19:33N 37°49' W 122°19'0 0.0
2015-Apr-11 18:27N 37°49' W 122°19'0 0.0
2015-Apr-11 17:27N 37°49' W 122°19'0 0.0
2015-Apr-11 16:33N 37°49' W 122°19'0 0.0
2015-Apr-11 15:30N 37°49' W 122°19'0 0.0
2015-Apr-11 14:30N 37°49' W 122°19'0 0.0
2015-Apr-11 13:33N 37°49' W 122°19'0 0.0
2015-Apr-11 12:33N 37°49' W 122°19'0 0.0
2015-Apr-11 11:33N 37°49' W 122°19'0 0.0
2015-Apr-11 10:33N 37°49' W 122°19'0 0.0
2015-Apr-11 09:33N 37°49' W 122°19'0 0.0
2015-Apr-11 08:33N 37°49' W 122°19'0 0.0
2015-Apr-11 07:33N 37°49' W 122°19'0 0.0
2015-Apr-11 06:33N 37°49' W 122°19'0 0.0
2015-Apr-11 05:33N 37°49' W 122°19'0 0.0
2015-Apr-11 04:33N 37°49' W 122°19'0 0.0
2015-Apr-11 03:33N 37°49' W 122°19'0 0.0
2015-Apr-11 02:33N 37°49' W 122°19'0 0.0
2015-Apr-11 01:33N 37°49' W 122°19'0 0.0
2015-Apr-11 00:33N 37°49' W 122°19'0 0.0
2015-Apr-10 23:33N 37°49' W 122°19'0 0.0
2015-Apr-10 22:33N 37°49' W 122°19'0 0.0
2015-Apr-10 21:33N 37°49' W 122°19'0 0.0
2015-Apr-10 20:33N 37°49' W 122°19'0 0.0
2015-Apr-10 19:33N 37°49' W 122°19'0 0.0
2015-Apr-10 18:33N 37°49' W 122°19'0 0.0
2015-Apr-10 17:33N 37°49' W 122°19'0 0.0
2015-Apr-10 16:33N 37°49' W 122°19'0 0.0
2015-Apr-10 15:33N 37°49' W 122°19'0 0.0
2015-Apr-10 14:34N 37°49' W 122°19'0 0.0
2015-Apr-10 13:34N 37°49' W 122°19'0 0.2
2015-Apr-10 12:34N 37°49' W 122°20'9 8.9
2015-Apr-10 11:33N 37°48' W 122°31'1211.6
2015-Apr-10 10:33N 37°45' W 122°45'6 5.9
2015-Apr-10 09:33N 37°48' W 122°52'5 4.9
2015-Apr-10 08:33N 37°51' W 122°57'5 5.1
2015-Apr-10 07:33N 37°53' W 123°02'5 5.2
2015-Apr-10 06:33N 37°56' W 123°08'5 5.3
2015-Apr-10 05:33N 37°60' W 123°13'5 5.0
2015-Apr-10 04:33N 38°03' W 123°17'5 5.2
2015-Apr-10 03:33N 38°07' W 123°22'5 4.5
2015-Apr-10 02:33N 38°02' W 123°24'0 0.5
2015-Apr-10 01:33N 38°02' W 123°24'1 1.3
2015-Apr-10 00:33N 38°03' W 123°25'1 1.2
2015-Apr-09 23:33N 38°04' W 123°26'1 1.0
2015-Apr-09 22:33N 38°05' W 123°27'1 1.0
2015-Apr-09 21:33N 38°05' W 123°28'1 1.1
2015-Apr-09 20:33N 38°06' W 123°28'1 0.8
2015-Apr-09 19:33N 38°07' W 123°29'4 4.0
2015-Apr-09 18:33N 38°08' W 123°24'1 0.9
2015-Apr-09 17:33N 38°09' W 123°25'1 0.8
2015-Apr-09 16:33N 38°09' W 123°25'1 0.7
2015-Apr-09 15:33N 38°10' W 123°26'1 0.8
2015-Apr-09 14:33N 38°10' W 123°25'5 4.9
2015-Apr-09 13:33N 38°15' W 123°27'7 6.7
2015-Apr-09 12:33N 38°21' W 123°32'6 6.4
2015-Apr-09 11:33N 38°26' W 123°36'6 6.3
2015-Apr-09 10:33N 38°32' W 123°40'6 6.3
2015-Apr-09 09:33N 38°37' W 123°44'6 6.0
2015-Apr-09 08:33N 38°43' W 123°48'6 5.9
2015-Apr-09 07:33N 38°48' W 123°51'400 7.7
2015-Apr-07 03:33N 45°25' W 125°01'9 9.1
2015-Apr-07 02:33N 45°34' W 125°03'11 8.9
2015-Apr-07 01:17N 45°45' W 125°04'7 9.1
2015-Apr-07 00:33N 45°52' W 125°05'11 9.0
2015-Apr-06 23:21N 46°02' W 125°06'7 9.3
2015-Apr-06 22:33N 46°10' W 125°07'9 8.8
2015-Apr-06 21:33N 46°18' W 125°08'9 8.7
2015-Apr-06 20:33N 46°27' W 125°10'9 8.6
2015-Apr-06 19:32N 46°36' W 125°11'10 8.6
2015-Apr-06 18:25N 46°45' W 125°11'8 8.8
2015-Apr-06 17:33N 46°53' W 125°12'7911.1
2015-Apr-06 10:28N 48°12' W 125°12'1213.0
2015-Apr-06 09:30N 48°24' W 125°08'1111.6
2015-Apr-06 08:33N 48°31' W 124°55'1413.8
2015-Apr-06 07:33N 48°28' W 124°35'1414.2
2015-Apr-06 06:33N 48°23' W 124°15'1514.5
2015-Apr-06 05:33N 48°17' W 123°55'1716.8
2015-Apr-06 04:33N 48°16' W 123°30'1414.4
2015-Apr-06 03:33N 48°25' W 123°12'1716.9
2015-Apr-06 02:34N 48°42' W 123°15'1413.8
2015-Apr-06 01:33N 48°52' W 123°02'10 9.1
2015-Apr-06 00:29N 49°01' W 123°09'0 0.0
2015-Apr-05 23:33N 49°01' W 123°09'0 0.0
2015-Apr-05 22:33N 49°01' W 123°09'0 0.0
2015-Apr-05 21:33N 49°01' W 123°09'0 0.0
2015-Apr-05 20:33N 49°01' W 123°09'0 0.0
2015-Apr-05 19:33N 49°01' W 123°09'0 0.0
2015-Apr-05 18:33N 49°01' W 123°09'0 0.0
2015-Apr-05 17:33N 49°01' W 123°09'0 0.0
2015-Apr-05 16:33N 49°01' W 123°09'0 0.0
2015-Apr-05 15:33N 49°01' W 123°09'0 0.0
2015-Apr-05 14:33N 49°01' W 123°09'0 0.0
2015-Apr-05 13:33N 49°01' W 123°09'0 0.0
2015-Apr-05 12:33N 49°01' W 123°09'0 0.0
2015-Apr-05 11:33N 49°01' W 123°09'0 0.0
2015-Apr-05 10:33N 49°01' W 123°09'0 0.0
2015-Apr-05 09:33N 49°01' W 123°09'0 0.0
2015-Apr-05 08:33N 49°01' W 123°09'0 0.0
2015-Apr-05 07:33N 49°01' W 123°09'0 0.0
2015-Apr-05 06:33N 49°01' W 123°09'0 0.0
2015-Apr-05 05:33N 49°01' W 123°09'0 0.0
2015-Apr-05 04:33N 49°01' W 123°09'0 0.0
2015-Apr-05 03:33N 49°01' W 123°09'0 0.0
2015-Apr-05 02:33N 49°01' W 123°09'0 0.0
2015-Apr-05 01:33N 49°01' W 123°09'0 0.0
2015-Apr-05 00:33N 49°01' W 123°09'0 0.0
2015-Apr-04 23:33N 49°01' W 123°09'0 0.0
2015-Apr-04 22:33N 49°01' W 123°09'0 0.0
2015-Apr-04 21:33N 49°01' W 123°09'0 0.0
2015-Apr-04 20:33N 49°01' W 123°09'3 2.8
2015-Apr-04 19:33N 48°58' W 123°08'  

Dump ship's entire track history